sensor_id;sensor_type;location;lat;lon;timestamp;P1;durP1;ratioP1;P2;durP2;ratioP2
7833;SDS011;3962;42.696;23.354;2023-06-19T00:02:04;6.63;;;4.77;;
7833;SDS011;3962;42.696;23.354;2023-06-19T00:04:31;5.60;;;5.00;;
7833;SDS011;3962;42.696;23.354;2023-06-19T00:06:59;7.43;;;5.40;;
7833;SDS011;3962;42.696;23.354;2023-06-19T00:09:27;7.03;;;5.57;;
7833;SDS011;3962;42.696;23.354;2023-06-19T00:11:54;8.37;;;4.93;;
7833;SDS011;3962;42.696;23.354;2023-06-19T00:14:21;5.47;;;4.97;;
7833;SDS011;3962;42.696;23.354;2023-06-19T00:16:47;5.53;;;5.03;;
7833;SDS011;3962;42.696;23.354;2023-06-19T00:19:15;7.07;;;5.10;;
7833;SDS011;3962;42.696;23.354;2023-06-19T00:21:42;8.60;;;5.30;;
7833;SDS011;3962;42.696;23.354;2023-06-19T00:24:09;5.93;;;4.87;;
7833;SDS011;3962;42.696;23.354;2023-06-19T00:26:38;5.97;;;4.70;;
7833;SDS011;3962;42.696;23.354;2023-06-19T00:29:05;7.97;;;5.00;;
7833;SDS011;3962;42.696;23.354;2023-06-19T00:31:32;5.63;;;5.10;;
7833;SDS011;3962;42.696;23.354;2023-06-19T00:34:02;6.00;;;4.90;;
7833;SDS011;3962;42.696;23.354;2023-06-19T00:36:29;6.10;;;5.50;;
7833;SDS011;3962;42.696;23.354;2023-06-19T00:38:56;7.73;;;5.20;;
7833;SDS011;3962;42.696;23.354;2023-06-19T00:41:22;7.73;;;5.00;;
7833;SDS011;3962;42.696;23.354;2023-06-19T00:43:54;7.10;;;5.10;;
7833;SDS011;3962;42.696;23.354;2023-06-19T00:46:20;5.50;;;5.00;;
7833;SDS011;3962;42.696;23.354;2023-06-19T00:48:47;5.53;;;5.00;;
7833;SDS011;3962;42.696;23.354;2023-06-19T00:51:15;8.83;;;5.50;;
7833;SDS011;3962;42.696;23.354;2023-06-19T00:53:41;7.03;;;5.10;;
7833;SDS011;3962;42.696;23.354;2023-06-19T00:56:08;6.03;;;5.03;;
7833;SDS011;3962;42.696;23.354;2023-06-19T00:58:35;7.85;;;5.38;;
7833;SDS011;3962;42.696;23.354;2023-06-19T01:01:04;5.53;;;4.90;;
7833;SDS011;3962;42.696;23.354;2023-06-19T01:03:30;6.07;;;5.00;;
7833;SDS011;3962;42.696;23.354;2023-06-19T01:05:57;9.33;;;5.50;;
7833;SDS011;3962;42.696;23.354;2023-06-19T01:08:34;6.27;;;5.13;;
7833;SDS011;3962;42.696;23.354;2023-06-19T01:11:09;7.17;;;4.90;;
7833;SDS011;3962;42.696;23.354;2023-06-19T01:13:39;5.50;;;4.90;;
7833;SDS011;3962;42.696;23.354;2023-06-19T01:16:12;5.90;;;5.13;;
7833;SDS011;3962;42.696;23.354;2023-06-19T01:18:41;5.97;;;4.73;;
7833;SDS011;3962;42.696;23.354;2023-06-19T01:21:10;5.90;;;5.30;;
7833;SDS011;3962;42.696;23.354;2023-06-19T01:23:39;6.20;;;5.30;;
7833;SDS011;3962;42.696;23.354;2023-06-19T01:26:06;6.20;;;4.97;;
7833;SDS011;3962;42.696;23.354;2023-06-19T01:28:33;7.57;;;4.80;;
7833;SDS011;3962;42.696;23.354;2023-06-19T01:31:02;5.63;;;4.93;;
7833;SDS011;3962;42.696;23.354;2023-06-19T01:33:32;7.47;;;5.07;;
7833;SDS011;3962;42.696;23.354;2023-06-19T01:36:03;7.07;;;5.07;;
7833;SDS011;3962;42.696;23.354;2023-06-19T01:38:32;6.37;;;4.90;;
7833;SDS011;3962;42.696;23.354;2023-06-19T01:41:02;7.07;;;5.77;;
7833;SDS011;3962;42.696;23.354;2023-06-19T01:43:32;6.20;;;5.07;;
7833;SDS011;3962;42.696;23.354;2023-06-19T01:45:59;7.23;;;5.47;;
7833;SDS011;3962;42.696;23.354;2023-06-19T01:48:27;6.87;;;5.80;;
7833;SDS011;3962;42.696;23.354;2023-06-19T01:50:54;6.70;;;5.50;;
7833;SDS011;3962;42.696;23.354;2023-06-19T01:53:21;7.77;;;5.87;;
7833;SDS011;3962;42.696;23.354;2023-06-19T01:55:48;8.50;;;5.57;;
7833;SDS011;3962;42.696;23.354;2023-06-19T01:58:16;7.87;;;5.77;;
7833;SDS011;3962;42.696;23.354;2023-06-19T02:00:43;6.90;;;5.20;;
7833;SDS011;3962;42.696;23.354;2023-06-19T02:03:10;6.17;;;5.40;;
7833;SDS011;3962;42.696;23.354;2023-06-19T02:05:37;7.67;;;5.67;;
7833;SDS011;3962;42.696;23.354;2023-06-19T02:08:04;7.10;;;6.00;;
7833;SDS011;3962;42.696;23.354;2023-06-19T02:10:31;6.40;;;5.73;;
7833;SDS011;3962;42.696;23.354;2023-06-19T02:12:58;7.47;;;5.90;;
7833;SDS011;3962;42.696;23.354;2023-06-19T02:15:27;7.17;;;6.20;;
7833;SDS011;3962;42.696;23.354;2023-06-19T02:17:54;9.13;;;5.87;;
7833;SDS011;3962;42.696;23.354;2023-06-19T02:20:21;10.03;;;5.50;;
7833;SDS011;3962;42.696;23.354;2023-06-19T02:22:49;9.03;;;5.67;;
7833;SDS011;3962;42.696;23.354;2023-06-19T02:25:16;8.17;;;5.97;;
7833;SDS011;3962;42.696;23.354;2023-06-19T02:27:43;7.40;;;6.03;;
7833;SDS011;3962;42.696;23.354;2023-06-19T02:30:10;7.10;;;5.60;;
7833;SDS011;3962;42.696;23.354;2023-06-19T02:32:39;7.50;;;6.17;;
7833;SDS011;3962;42.696;23.354;2023-06-19T02:35:06;10.77;;;6.57;;
7833;SDS011;3962;42.696;23.354;2023-06-19T02:37:36;6.83;;;5.70;;
7833;SDS011;3962;42.696;23.354;2023-06-19T02:40:03;8.87;;;6.03;;
7833;SDS011;3962;42.696;23.354;2023-06-19T02:42:31;8.93;;;6.50;;
7833;SDS011;3962;42.696;23.354;2023-06-19T02:44:58;7.30;;;6.03;;
7833;SDS011;3962;42.696;23.354;2023-06-19T02:47:28;7.43;;;6.00;;
7833;SDS011;3962;42.696;23.354;2023-06-19T02:49:58;7.23;;;5.47;;
7833;SDS011;3962;42.696;23.354;2023-06-19T02:52:26;7.80;;;5.33;;
7833;SDS011;3962;42.696;23.354;2023-06-19T02:54:53;8.37;;;5.77;;
7833;SDS011;3962;42.696;23.354;2023-06-19T02:57:20;8.37;;;5.80;;
7833;SDS011;3962;42.696;23.354;2023-06-19T02:59:47;7.33;;;5.30;;
7833;SDS011;3962;42.696;23.354;2023-06-19T03:02:13;7.00;;;5.80;;
7833;SDS011;3962;42.696;23.354;2023-06-19T03:04:40;8.13;;;6.37;;
7833;SDS011;3962;42.696;23.354;2023-06-19T03:07:09;8.40;;;6.03;;
7833;SDS011;3962;42.696;23.354;2023-06-19T03:09:35;11.43;;;7.70;;
7833;SDS011;3962;42.696;23.354;2023-06-19T03:12:03;11.07;;;6.17;;
7833;SDS011;3962;42.696;23.354;2023-06-19T03:14:30;10.87;;;6.83;;
7833;SDS011;3962;42.696;23.354;2023-06-19T03:16:57;8.80;;;6.60;;
7833;SDS011;3962;42.696;23.354;2023-06-19T03:19:23;9.80;;;7.10;;
7833;SDS011;3962;42.696;23.354;2023-06-19T03:21:50;10.13;;;7.00;;
7833;SDS011;3962;42.696;23.354;2023-06-19T03:24:19;11.20;;;6.90;;
7833;SDS011;3962;42.696;23.354;2023-06-19T03:26:45;15.83;;;11.77;;
7833;SDS011;3962;42.696;23.354;2023-06-19T03:29:12;14.03;;;11.00;;
7833;SDS011;3962;42.696;23.354;2023-06-19T03:31:39;22.77;;;15.63;;
7833;SDS011;3962;42.696;23.354;2023-06-19T03:34:06;10.87;;;7.90;;
7833;SDS011;3962;42.696;23.354;2023-06-19T03:36:32;10.43;;;8.27;;
7833;SDS011;3962;42.696;23.354;2023-06-19T03:38:59;11.83;;;9.00;;
7833;SDS011;3962;42.696;23.354;2023-06-19T03:41:27;31.13;;;18.77;;
7833;SDS011;3962;42.696;23.354;2023-06-19T03:43:54;16.63;;;9.50;;
7833;SDS011;3962;42.696;23.354;2023-06-19T03:46:21;15.57;;;8.33;;
7833;SDS011;3962;42.696;23.354;2023-06-19T03:48:48;9.83;;;8.23;;
7833;SDS011;3962;42.696;23.354;2023-06-19T03:51:15;9.90;;;7.50;;
7833;SDS011;3962;42.696;23.354;2023-06-19T03:53:41;8.53;;;7.43;;
7833;SDS011;3962;42.696;23.354;2023-06-19T03:56:08;14.07;;;7.77;;
7833;SDS011;3962;42.696;23.354;2023-06-19T03:58:36;25.33;;;14.60;;
7833;SDS011;3962;42.696;23.354;2023-06-19T04:01:03;18.40;;;11.40;;
7833;SDS011;3962;42.696;23.354;2023-06-19T04:03:31;14.27;;;8.90;;
7833;SDS011;3962;42.696;23.354;2023-06-19T04:05:58;14.10;;;7.87;;
7833;SDS011;3962;42.696;23.354;2023-06-19T04:08:25;12.97;;;7.87;;
7833;SDS011;3962;42.696;23.354;2023-06-19T04:10:52;11.10;;;7.47;;
7833;SDS011;3962;42.696;23.354;2023-06-19T04:13:18;12.30;;;7.63;;
7833;SDS011;3962;42.696;23.354;2023-06-19T04:15:47;14.63;;;8.20;;
7833;SDS011;3962;42.696;23.354;2023-06-19T04:18:14;14.97;;;8.27;;
7833;SDS011;3962;42.696;23.354;2023-06-19T04:20:40;12.07;;;8.47;;
7833;SDS011;3962;42.696;23.354;2023-06-19T04:23:07;17.33;;;10.03;;
7833;SDS011;3962;42.696;23.354;2023-06-19T04:25:34;14.10;;;8.40;;
7833;SDS011;3962;42.696;23.354;2023-06-19T04:28:01;14.60;;;8.60;;
7833;SDS011;3962;42.696;23.354;2023-06-19T04:30:29;14.63;;;8.33;;
7833;SDS011;3962;42.696;23.354;2023-06-19T04:32:58;20.93;;;11.73;;
7833;SDS011;3962;42.696;23.354;2023-06-19T04:35:25;18.57;;;10.50;;
7833;SDS011;3962;42.696;23.354;2023-06-19T04:37:52;15.93;;;9.20;;
7833;SDS011;3962;42.696;23.354;2023-06-19T04:40:20;12.57;;;9.03;;
7833;SDS011;3962;42.696;23.354;2023-06-19T04:42:46;19.60;;;8.77;;
7833;SDS011;3962;42.696;23.354;2023-06-19T04:45:13;16.47;;;10.20;;
7833;SDS011;3962;42.696;23.354;2023-06-19T04:47:40;17.47;;;10.47;;
7833;SDS011;3962;42.696;23.354;2023-06-19T04:50:11;14.60;;;8.40;;
7833;SDS011;3962;42.696;23.354;2023-06-19T04:52:37;12.33;;;6.83;;
7833;SDS011;3962;42.696;23.354;2023-06-19T04:55:05;9.10;;;6.73;;
7833;SDS011;3962;42.696;23.354;2023-06-19T04:57:34;9.73;;;7.47;;
7833;SDS011;3962;42.696;23.354;2023-06-19T05:00:02;14.90;;;9.20;;
7833;SDS011;3962;42.696;23.354;2023-06-19T05:02:30;14.43;;;8.13;;
7833;SDS011;3962;42.696;23.354;2023-06-19T05:04:57;12.07;;;7.00;;
7833;SDS011;3962;42.696;23.354;2023-06-19T05:07:28;9.80;;;6.03;;
7833;SDS011;3962;42.696;23.354;2023-06-19T05:09:55;7.83;;;5.73;;
7833;SDS011;3962;42.696;23.354;2023-06-19T05:12:22;9.30;;;6.07;;
7833;SDS011;3962;42.696;23.354;2023-06-19T05:14:49;8.93;;;5.90;;
7833;SDS011;3962;42.696;23.354;2023-06-19T05:17:16;10.67;;;6.03;;
7833;SDS011;3962;42.696;23.354;2023-06-19T05:19:43;11.33;;;5.70;;
7833;SDS011;3962;42.696;23.354;2023-06-19T05:22:10;7.93;;;4.73;;
7833;SDS011;3962;42.696;23.354;2023-06-19T05:24:38;9.27;;;5.27;;
7833;SDS011;3962;42.696;23.354;2023-06-19T05:27:05;9.83;;;5.30;;
7833;SDS011;3962;42.696;23.354;2023-06-19T05:29:32;9.87;;;5.23;;
7833;SDS011;3962;42.696;23.354;2023-06-19T05:31:59;9.47;;;5.23;;
7833;SDS011;3962;42.696;23.354;2023-06-19T05:34:26;11.53;;;5.30;;
7833;SDS011;3962;42.696;23.354;2023-06-19T05:36:53;6.50;;;5.20;;
7833;SDS011;3962;42.696;23.354;2023-06-19T05:39:19;5.70;;;5.10;;
7833;SDS011;3962;42.696;23.354;2023-06-19T05:41:48;7.23;;;5.60;;
7833;SDS011;3962;42.696;23.354;2023-06-19T05:44:15;5.50;;;4.57;;
7833;SDS011;3962;42.696;23.354;2023-06-19T05:46:45;7.63;;;5.83;;
7833;SDS011;3962;42.696;23.354;2023-06-19T05:49:11;6.43;;;5.20;;
7833;SDS011;3962;42.696;23.354;2023-06-19T05:51:38;8.40;;;5.73;;
7833;SDS011;3962;42.696;23.354;2023-06-19T05:54:05;8.53;;;5.77;;
7833;SDS011;3962;42.696;23.354;2023-06-19T05:56:32;5.97;;;5.03;;
7833;SDS011;3962;42.696;23.354;2023-06-19T05:59:02;11.50;;;5.73;;
7833;SDS011;3962;42.696;23.354;2023-06-19T06:01:29;9.03;;;5.70;;
7833;SDS011;3962;42.696;23.354;2023-06-19T06:03:57;7.13;;;5.93;;
7833;SDS011;3962;42.696;23.354;2023-06-19T06:06:26;7.13;;;5.77;;
7833;SDS011;3962;42.696;23.354;2023-06-19T06:08:53;6.73;;;5.57;;
7833;SDS011;3962;42.696;23.354;2023-06-19T06:11:21;8.00;;;5.60;;
7833;SDS011;3962;42.696;23.354;2023-06-19T06:13:48;8.13;;;6.57;;
7833;SDS011;3962;42.696;23.354;2023-06-19T06:16:16;6.37;;;5.50;;
7833;SDS011;3962;42.696;23.354;2023-06-19T06:18:44;6.57;;;5.27;;
7833;SDS011;3962;42.696;23.354;2023-06-19T06:21:11;7.60;;;5.50;;
7833;SDS011;3962;42.696;23.354;2023-06-19T06:23:38;11.00;;;5.33;;
7833;SDS011;3962;42.696;23.354;2023-06-19T06:26:06;8.43;;;6.23;;
7833;SDS011;3962;42.696;23.354;2023-06-19T06:28:33;15.87;;;8.30;;
7833;SDS011;3962;42.696;23.354;2023-06-19T06:31:00;12.30;;;5.70;;
7833;SDS011;3962;42.696;23.354;2023-06-19T06:33:28;9.13;;;5.83;;
7833;SDS011;3962;42.696;23.354;2023-06-19T06:35:57;5.83;;;5.17;;
7833;SDS011;3962;42.696;23.354;2023-06-19T06:38:24;15.90;;;6.13;;
7833;SDS011;3962;42.696;23.354;2023-06-19T06:40:50;9.43;;;6.03;;
7833;SDS011;3962;42.696;23.354;2023-06-19T06:43:17;11.17;;;8.50;;
7833;SDS011;3962;42.696;23.354;2023-06-19T06:45:44;6.50;;;5.50;;
7833;SDS011;3962;42.696;23.354;2023-06-19T06:48:11;9.40;;;5.40;;
7833;SDS011;3962;42.696;23.354;2023-06-19T06:50:39;7.27;;;5.40;;
7833;SDS011;3962;42.696;23.354;2023-06-19T06:53:07;9.83;;;5.83;;
7833;SDS011;3962;42.696;23.354;2023-06-19T06:55:33;8.40;;;4.97;;
7833;SDS011;3962;42.696;23.354;2023-06-19T06:58:00;6.70;;;4.73;;
7833;SDS011;3962;42.696;23.354;2023-06-19T07:00:28;5.17;;;4.07;;
7833;SDS011;3962;42.696;23.354;2023-06-19T07:02:55;8.30;;;4.83;;
7833;SDS011;3962;42.696;23.354;2023-06-19T07:05:22;7.80;;;5.63;;
7833;SDS011;3962;42.696;23.354;2023-06-19T07:07:50;11.37;;;5.53;;
7833;SDS011;3962;42.696;23.354;2023-06-19T07:10:17;38.13;;;8.67;;
7833;SDS011;3962;42.696;23.354;2023-06-19T07:12:44;14.83;;;5.90;;
7833;SDS011;3962;42.696;23.354;2023-06-19T07:15:12;7.17;;;4.23;;
7833;SDS011;3962;42.696;23.354;2023-06-19T07:17:39;9.37;;;4.63;;
7833;SDS011;3962;42.696;23.354;2023-06-19T07:20:09;11.90;;;5.67;;
7833;SDS011;3962;42.696;23.354;2023-06-19T07:22:36;8.13;;;5.00;;
7833;SDS011;3962;42.696;23.354;2023-06-19T07:25:05;7.57;;;4.47;;
7833;SDS011;3962;42.696;23.354;2023-06-19T07:27:33;10.60;;;4.80;;
7833;SDS011;3962;42.696;23.354;2023-06-19T07:30:00;10.50;;;5.00;;
7833;SDS011;3962;42.696;23.354;2023-06-19T07:32:27;15.03;;;5.67;;
7833;SDS011;3962;42.696;23.354;2023-06-19T07:34:54;6.57;;;4.43;;
7833;SDS011;3962;42.696;23.354;2023-06-19T07:37:21;7.43;;;4.33;;
7833;SDS011;3962;42.696;23.354;2023-06-19T07:39:48;9.63;;;4.50;;
7833;SDS011;3962;42.696;23.354;2023-06-19T07:42:17;5.63;;;4.73;;
7833;SDS011;3962;42.696;23.354;2023-06-19T07:44:45;15.17;;;6.77;;
7833;SDS011;3962;42.696;23.354;2023-06-19T07:47:12;15.03;;;6.17;;
7833;SDS011;3962;42.696;23.354;2023-06-19T07:49:40;6.13;;;4.80;;
7833;SDS011;3962;42.696;23.354;2023-06-19T07:52:07;13.37;;;5.63;;
7833;SDS011;3962;42.696;23.354;2023-06-19T07:54:35;7.87;;;5.17;;
7833;SDS011;3962;42.696;23.354;2023-06-19T07:57:02;12.73;;;5.67;;
7833;SDS011;3962;42.696;23.354;2023-06-19T07:59:31;13.30;;;7.07;;
7833;SDS011;3962;42.696;23.354;2023-06-19T08:01:58;17.47;;;6.77;;
7833;SDS011;3962;42.696;23.354;2023-06-19T08:04:24;9.83;;;5.87;;
7833;SDS011;3962;42.696;23.354;2023-06-19T08:06:51;9.70;;;5.07;;
7833;SDS011;3962;42.696;23.354;2023-06-19T08:09:18;10.70;;;4.60;;
7833;SDS011;3962;42.696;23.354;2023-06-19T08:11:45;10.83;;;5.37;;
7833;SDS011;3962;42.696;23.354;2023-06-19T08:14:12;6.83;;;5.10;;
7833;SDS011;3962;42.696;23.354;2023-06-19T08:16:40;14.23;;;6.07;;
7833;SDS011;3962;42.696;23.354;2023-06-19T08:19:07;11.20;;;5.83;;
7833;SDS011;3962;42.696;23.354;2023-06-19T08:21:34;5.67;;;4.30;;
7833;SDS011;3962;42.696;23.354;2023-06-19T08:24:00;13.33;;;5.27;;
7833;SDS011;3962;42.696;23.354;2023-06-19T08:26:27;8.83;;;4.90;;
7833;SDS011;3962;42.696;23.354;2023-06-19T08:28:54;5.93;;;4.47;;
7833;SDS011;3962;42.696;23.354;2023-06-19T08:31:21;5.00;;;4.40;;
7833;SDS011;3962;42.696;23.354;2023-06-19T08:33:57;7.60;;;5.00;;
7833;SDS011;3962;42.696;23.354;2023-06-19T08:36:25;9.60;;;5.20;;
7833;SDS011;3962;42.696;23.354;2023-06-19T08:38:52;9.97;;;5.13;;
7833;SDS011;3962;42.696;23.354;2023-06-19T08:41:19;5.70;;;4.47;;
7833;SDS011;3962;42.696;23.354;2023-06-19T08:43:46;5.20;;;4.40;;
7833;SDS011;3962;42.696;23.354;2023-06-19T08:46:14;14.50;;;6.83;;
7833;SDS011;3962;42.696;23.354;2023-06-19T08:48:42;10.50;;;5.43;;
7833;SDS011;3962;42.696;23.354;2023-06-19T08:51:11;6.53;;;4.33;;
7833;SDS011;3962;42.696;23.354;2023-06-19T08:53:43;5.87;;;4.10;;
7833;SDS011;3962;42.696;23.354;2023-06-19T08:56:12;11.03;;;4.43;;
7833;SDS011;3962;42.696;23.354;2023-06-19T08:58:39;6.30;;;4.70;;
7833;SDS011;3962;42.696;23.354;2023-06-19T09:01:06;11.33;;;5.33;;
7833;SDS011;3962;42.696;23.354;2023-06-19T09:03:34;7.80;;;5.37;;
7833;SDS011;3962;42.696;23.354;2023-06-19T09:06:02;8.40;;;4.43;;
7833;SDS011;3962;42.696;23.354;2023-06-19T09:08:31;5.47;;;3.60;;
7833;SDS011;3962;42.696;23.354;2023-06-19T09:11:02;10.63;;;5.23;;
7833;SDS011;3962;42.696;23.354;2023-06-19T09:13:30;4.87;;;4.30;;
7833;SDS011;3962;42.696;23.354;2023-06-19T09:15:59;7.87;;;4.83;;
7833;SDS011;3962;42.696;23.354;2023-06-19T09:18:30;12.70;;;5.13;;
7833;SDS011;3962;42.696;23.354;2023-06-19T09:20:58;5.70;;;4.50;;
7833;SDS011;3962;42.696;23.354;2023-06-19T09:23:25;6.23;;;4.10;;
7833;SDS011;3962;42.696;23.354;2023-06-19T09:25:53;10.83;;;4.30;;
7833;SDS011;3962;42.696;23.354;2023-06-19T09:28:21;4.30;;;3.90;;
7833;SDS011;3962;42.696;23.354;2023-06-19T09:30:53;12.63;;;6.40;;
7833;SDS011;3962;42.696;23.354;2023-06-19T09:33:21;6.10;;;4.57;;
7833;SDS011;3962;42.696;23.354;2023-06-19T09:35:49;5.97;;;3.93;;
7833;SDS011;3962;42.696;23.354;2023-06-19T09:38:16;5.53;;;4.00;;
7833;SDS011;3962;42.696;23.354;2023-06-19T09:40:44;5.33;;;4.20;;
7833;SDS011;3962;42.696;23.354;2023-06-19T09:43:13;4.50;;;3.60;;
7833;SDS011;3962;42.696;23.354;2023-06-19T09:45:45;6.50;;;4.70;;
7833;SDS011;3962;42.696;23.354;2023-06-19T09:48:19;4.93;;;4.00;;
7833;SDS011;3962;42.696;23.354;2023-06-19T09:50:50;4.47;;;4.07;;
7833;SDS011;3962;42.696;23.354;2023-06-19T09:53:18;5.53;;;4.73;;
7833;SDS011;3962;42.696;23.354;2023-06-19T09:55:47;8.47;;;5.70;;
7833;SDS011;3962;42.696;23.354;2023-06-19T09:58:18;6.00;;;4.33;;
7833;SDS011;3962;42.696;23.354;2023-06-19T10:00:46;6.93;;;3.90;;
7833;SDS011;3962;42.696;23.354;2023-06-19T10:03:16;9.93;;;4.07;;
7833;SDS011;3962;42.696;23.354;2023-06-19T10:05:43;5.17;;;3.93;;
7833;SDS011;3962;42.696;23.354;2023-06-19T10:08:10;5.73;;;4.17;;
7833;SDS011;3962;42.696;23.354;2023-06-19T10:10:37;4.87;;;4.17;;
7833;SDS011;3962;42.696;23.354;2023-06-19T10:13:13;7.50;;;4.73;;
7833;SDS011;3962;42.696;23.354;2023-06-19T10:15:43;5.87;;;4.07;;
7833;SDS011;3962;42.696;23.354;2023-06-19T10:18:13;9.90;;;4.93;;
7833;SDS011;3962;42.696;23.354;2023-06-19T10:20:42;19.63;;;9.87;;
7833;SDS011;3962;42.696;23.354;2023-06-19T10:23:11;8.83;;;4.37;;
7833;SDS011;3962;42.696;23.354;2023-06-19T10:25:42;5.60;;;4.47;;
7833;SDS011;3962;42.696;23.354;2023-06-19T10:28:17;8.97;;;4.20;;
7833;SDS011;3962;42.696;23.354;2023-06-19T10:30:46;4.70;;;3.73;;
7833;SDS011;3962;42.696;23.354;2023-06-19T10:33:18;8.03;;;4.67;;
7833;SDS011;3962;42.696;23.354;2023-06-19T10:35:45;5.37;;;4.00;;
7833;SDS011;3962;42.696;23.354;2023-06-19T10:38:14;6.43;;;3.63;;
7833;SDS011;3962;42.696;23.354;2023-06-19T10:40:41;4.70;;;4.20;;
7833;SDS011;3962;42.696;23.354;2023-06-19T10:43:09;8.40;;;4.20;;
7833;SDS011;3962;42.696;23.354;2023-06-19T10:45:36;7.83;;;5.07;;
7833;SDS011;3962;42.696;23.354;2023-06-19T10:48:04;4.83;;;4.27;;
7833;SDS011;3962;42.696;23.354;2023-06-19T10:50:35;20.13;;;5.43;;
7833;SDS011;3962;42.696;23.354;2023-06-19T10:53:06;4.37;;;3.97;;
7833;SDS011;3962;42.696;23.354;2023-06-19T10:55:33;8.97;;;4.33;;
7833;SDS011;3962;42.696;23.354;2023-06-19T10:58:01;7.47;;;4.80;;
7833;SDS011;3962;42.696;23.354;2023-06-19T11:00:29;6.00;;;4.37;;
7833;SDS011;3962;42.696;23.354;2023-06-19T11:02:57;5.03;;;4.20;;
7833;SDS011;3962;42.696;23.354;2023-06-19T11:05:27;5.13;;;4.63;;
7833;SDS011;3962;42.696;23.354;2023-06-19T11:07:55;1.40;;;0.30;;
7833;SDS011;3962;42.696;23.354;2023-06-19T11:10:23;5.57;;;4.30;;
7833;SDS011;3962;42.696;23.354;2023-06-19T11:12:53;7.47;;;4.27;;
7833;SDS011;3962;42.696;23.354;2023-06-19T11:15:27;4.33;;;3.93;;
7833;SDS011;3962;42.696;23.354;2023-06-19T11:17:54;6.17;;;4.63;;
7833;SDS011;3962;42.696;23.354;2023-06-19T11:20:22;9.53;;;4.70;;
7833;SDS011;3962;42.696;23.354;2023-06-19T11:22:54;5.57;;;4.50;;
7833;SDS011;3962;42.696;23.354;2023-06-19T11:25:22;5.17;;;4.27;;
7833;SDS011;3962;42.696;23.354;2023-06-19T11:27:49;5.23;;;4.30;;
7833;SDS011;3962;42.696;23.354;2023-06-19T11:30:17;6.43;;;4.73;;
7833;SDS011;3962;42.696;23.354;2023-06-19T11:32:46;5.93;;;5.13;;
7833;SDS011;3962;42.696;23.354;2023-06-19T11:35:15;7.77;;;5.37;;
7833;SDS011;3962;42.696;23.354;2023-06-19T11:37:42;9.77;;;4.40;;
7833;SDS011;3962;42.696;23.354;2023-06-19T11:40:11;10.07;;;5.53;;
7833;SDS011;3962;42.696;23.354;2023-06-19T11:42:51;9.27;;;5.60;;
7833;SDS011;3962;42.696;23.354;2023-06-19T11:45:19;8.83;;;5.10;;
7833;SDS011;3962;42.696;23.354;2023-06-19T11:47:48;6.77;;;4.60;;
7833;SDS011;3962;42.696;23.354;2023-06-19T11:50:15;8.00;;;4.83;;
7833;SDS011;3962;42.696;23.354;2023-06-19T11:52:44;5.67;;;5.00;;
7833;SDS011;3962;42.696;23.354;2023-06-19T11:55:13;5.13;;;4.30;;
7833;SDS011;3962;42.696;23.354;2023-06-19T11:57:41;7.43;;;5.67;;
7833;SDS011;3962;42.696;23.354;2023-06-19T12:00:13;7.70;;;4.00;;
7833;SDS011;3962;42.696;23.354;2023-06-19T12:02:41;4.73;;;4.23;;
7833;SDS011;3962;42.696;23.354;2023-06-19T12:05:08;5.83;;;4.50;;
7833;SDS011;3962;42.696;23.354;2023-06-19T12:07:36;9.43;;;5.50;;
7833;SDS011;3962;42.696;23.354;2023-06-19T12:10:03;7.30;;;5.37;;
7833;SDS011;3962;42.696;23.354;2023-06-19T12:12:36;6.45;;;5.30;;
7833;SDS011;3962;42.696;23.354;2023-06-19T12:15:04;6.27;;;4.37;;
7833;SDS011;3962;42.696;23.354;2023-06-19T12:17:32;8.03;;;4.47;;
7833;SDS011;3962;42.696;23.354;2023-06-19T12:19:59;8.38;;;4.60;;
7833;SDS011;3962;42.696;23.354;2023-06-19T12:22:26;6.10;;;4.90;;
7833;SDS011;3962;42.696;23.354;2023-06-19T12:24:53;6.20;;;5.07;;
7833;SDS011;3962;42.696;23.354;2023-06-19T12:27:20;7.80;;;5.70;;
7833;SDS011;3962;42.696;23.354;2023-06-19T12:29:48;7.63;;;5.20;;
7833;SDS011;3962;42.696;23.354;2023-06-19T12:32:15;6.87;;;5.80;;
7833;SDS011;3962;42.696;23.354;2023-06-19T12:34:42;13.93;;;10.20;;
7833;SDS011;3962;42.696;23.354;2023-06-19T12:37:11;5.33;;;4.67;;
7833;SDS011;3962;42.696;23.354;2023-06-19T12:39:40;5.83;;;5.07;;
7833;SDS011;3962;42.696;23.354;2023-06-19T12:42:08;5.90;;;4.67;;
7833;SDS011;3962;42.696;23.354;2023-06-19T12:44:37;6.80;;;4.30;;
7833;SDS011;3962;42.696;23.354;2023-06-19T12:47:06;17.10;;;7.43;;
7833;SDS011;3962;42.696;23.354;2023-06-19T12:49:33;9.87;;;6.77;;
7833;SDS011;3962;42.696;23.354;2023-06-19T12:52:00;5.13;;;4.40;;
7833;SDS011;3962;42.696;23.354;2023-06-19T12:54:26;6.10;;;4.80;;
7833;SDS011;3962;42.696;23.354;2023-06-19T12:56:53;11.40;;;6.97;;
7833;SDS011;3962;42.696;23.354;2023-06-19T12:59:20;6.60;;;4.70;;
7833;SDS011;3962;42.696;23.354;2023-06-19T13:01:47;13.43;;;7.67;;
7833;SDS011;3962;42.696;23.354;2023-06-19T13:04:15;10.73;;;6.67;;
7833;SDS011;3962;42.696;23.354;2023-06-19T13:06:42;5.07;;;4.20;;
7833;SDS011;3962;42.696;23.354;2023-06-19T13:09:09;5.23;;;4.73;;
7833;SDS011;3962;42.696;23.354;2023-06-19T13:11:36;7.90;;;4.70;;
7833;SDS011;3962;42.696;23.354;2023-06-19T13:14:02;5.53;;;4.60;;
7833;SDS011;3962;42.696;23.354;2023-06-19T13:16:30;6.43;;;5.23;;
7833;SDS011;3962;42.696;23.354;2023-06-19T13:18:58;7.80;;;4.50;;
7833;SDS011;3962;42.696;23.354;2023-06-19T13:21:27;7.30;;;4.40;;
7833;SDS011;3962;42.696;23.354;2023-06-19T13:23:53;6.57;;;4.80;;
7833;SDS011;3962;42.696;23.354;2023-06-19T13:26:20;8.17;;;4.60;;
7833;SDS011;3962;42.696;23.354;2023-06-19T13:28:47;6.23;;;4.37;;
7833;SDS011;3962;42.696;23.354;2023-06-19T13:31:14;6.40;;;4.30;;
7833;SDS011;3962;42.696;23.354;2023-06-19T13:33:41;9.47;;;4.60;;
7833;SDS011;3962;42.696;23.354;2023-06-19T13:36:07;5.70;;;4.53;;
7833;SDS011;3962;42.696;23.354;2023-06-19T13:38:36;6.93;;;4.30;;
7833;SDS011;3962;42.696;23.354;2023-06-19T13:41:02;6.70;;;4.37;;
7833;SDS011;3962;42.696;23.354;2023-06-19T13:43:29;5.13;;;4.33;;
7833;SDS011;3962;42.696;23.354;2023-06-19T13:45:56;11.27;;;4.33;;
7833;SDS011;3962;42.696;23.354;2023-06-19T13:48:23;6.83;;;4.33;;
7833;SDS011;3962;42.696;23.354;2023-06-19T13:50:50;4.20;;;3.80;;
7833;SDS011;3962;42.696;23.354;2023-06-19T13:53:16;6.60;;;4.30;;
7833;SDS011;3962;42.696;23.354;2023-06-19T13:55:45;5.03;;;3.97;;
7833;SDS011;3962;42.696;23.354;2023-06-19T13:58:13;5.30;;;4.27;;
7833;SDS011;3962;42.696;23.354;2023-06-19T14:00:40;7.47;;;4.03;;
7833;SDS011;3962;42.696;23.354;2023-06-19T14:03:06;5.00;;;4.00;;
7833;SDS011;3962;42.696;23.354;2023-06-19T14:05:33;6.03;;;4.07;;
7833;SDS011;3962;42.696;23.354;2023-06-19T14:08:01;6.63;;;3.87;;
7833;SDS011;3962;42.696;23.354;2023-06-19T14:10:29;6.33;;;5.13;;
7833;SDS011;3962;42.696;23.354;2023-06-19T14:12:57;4.73;;;3.90;;
7833;SDS011;3962;42.696;23.354;2023-06-19T14:15:24;9.43;;;4.37;;
7833;SDS011;3962;42.696;23.354;2023-06-19T14:17:51;6.53;;;4.50;;
7833;SDS011;3962;42.696;23.354;2023-06-19T14:20:18;6.33;;;4.37;;
7833;SDS011;3962;42.696;23.354;2023-06-19T14:22:45;6.03;;;4.90;;
7833;SDS011;3962;42.696;23.354;2023-06-19T14:25:11;10.97;;;4.67;;
7833;SDS011;3962;42.696;23.354;2023-06-19T14:27:39;7.00;;;4.43;;
7833;SDS011;3962;42.696;23.354;2023-06-19T14:30:07;5.47;;;4.30;;
7833;SDS011;3962;42.696;23.354;2023-06-19T14:32:34;5.70;;;4.67;;
7833;SDS011;3962;42.696;23.354;2023-06-19T14:35:02;8.67;;;4.83;;
7833;SDS011;3962;42.696;23.354;2023-06-19T14:37:29;4.87;;;4.27;;
7833;SDS011;3962;42.696;23.354;2023-06-19T14:39:56;5.27;;;4.50;;
7833;SDS011;3962;42.696;23.354;2023-06-19T14:42:23;7.13;;;4.30;;
7833;SDS011;3962;42.696;23.354;2023-06-19T14:44:50;6.03;;;4.63;;
7833;SDS011;3962;42.696;23.354;2023-06-19T14:47:18;5.50;;;4.77;;
7833;SDS011;3962;42.696;23.354;2023-06-19T14:49:45;5.93;;;4.97;;
7833;SDS011;3962;42.696;23.354;2023-06-19T14:52:13;5.33;;;4.73;;
7833;SDS011;3962;42.696;23.354;2023-06-19T14:54:41;10.07;;;4.90;;
7833;SDS011;3962;42.696;23.354;2023-06-19T14:57:08;6.00;;;4.90;;
7833;SDS011;3962;42.696;23.354;2023-06-19T14:59:35;5.43;;;4.57;;
7833;SDS011;3962;42.696;23.354;2023-06-19T15:02:02;6.03;;;4.33;;